Terminal Aerodrome Forecast
Issued by NWS Charleston, WV

Current Version | Previous Version | Graphics & Text | Print | Product List | Glossary On
Versions: 1 2 3 4 5 6 7 8 9 10 11 12 13 14 15 16 17 18 19 20 21 22 23 24 25
000
FTUS41 KRLX 190900 AAA
TAFCRW
TAF AMD
KCRW 190900Z 1909/2006 00000KT P6SM OVC015
     FM191200 00000KT 4SM BR BKN012
     FM191400 12005KT P6SM SCT015 SCT150
     FM191600 10005KT P6SM SCT150=

USA.gov is the U.S. government's official web portal to all federal, state and local government web resources and services.